(°C)
19°
20°
22°
23°
25°
26°
27°
(°C)
18°
20°
21°
23°
24°
26°
28°
S
SSZ
SSZ
SZ
SZ
ZSZ
ZSZ
(km/h)
6-13
7-13
7-14
9-16
11-19
13-22
14-25
(mm)
0
0
0
0
0
0
0
(%)
0
0
0
0
0
0
0

Sluneční výška

/ 6.7°
sun-icon
UV 10
06:01
19:48
Ubývající srpek (291°)
01:03
15:18

METAR pro San Diego (KSAN)

Čas Podmínky Teplota/
Rosný bod
Vítr Viditelnost Počasí Oblaky Tlak Změna Nezpracované
VFR 18.3°C / 15°C 320º 4kt >10km - Few Clouds 600ft 1017 - KSAN 021251Z 32004KT 10SM FEW006 18/15 A3005 RMK AO2 SLP174 T01830150 $
VFR 18.9°C / 15°C 290º 3kt >10km - Few Clouds 700ft 1016 - KSAN 021151Z 29003KT 10SM FEW007 19/15 A3003 RMK AO2 SLP168 T01890150 10222 20189 $
VFR 19.4°C / 14.4°C 30º 3kt >10km - Few Clouds 700ft 1016 - KSAN 021051Z 03003KT 10SM FEW007 19/14 A3003 RMK AO2 SLP168 T01940144 $
VFR 19.4°C / 15.6°C 330º 4kt >10km - Few Clouds 700ft 1016 - KSAN 020951Z 33004KT 10SM FEW007 19/16 A3002 RMK AO2 SLP167 T01940156 $
VFR 20°C / 16.1°C variable 0kt >10km - Few Clouds 700ft - KSAN 020908Z 00000KT 10SM FEW007 20/16 A3003 RMK AO2 T02000161 $
VFR 21°C / 16°C 350º 5kt >10km *****mm precipitation Few Clouds 700ft - KSAN 020851Z 35005KT 10SM P6000FT FEW007 21/16 A3003
VFR 20.6°C / 16.1°C 340º 4kt >10km - Few Clouds 800ft 1016 - KSAN 020751Z 34004KT 10SM FEW008 21/16 A3003 RMK AO2 SLP169 T02060161 402670178 $
VFR 21.1°C / 16.1°C variable 0kt >10km - Few Clouds 800ft 1017 - KSAN 020651Z 00000KT 10SM FEW008 21/16 A3004 RMK AO2 SLP173 T02110161 $
VFR 21.7°C / 16.1°C 350º 5kt >10km - Few Clouds 800ft 1017 - KSAN 020551Z 35005KT 10SM FEW008 22/16 A3004 RMK AO2 SLP173 T02170161 10267 20217 51012 $
VFR 22.2°C / 16.1°C 350º 6kt >10km - Few Clouds 800ft 1017 - KSAN 020451Z 35006KT 10SM FEW008 22/16 A3004 RMK AO2 SLP171 T02220161 $
VFR 22.2°C / 16.7°C 330º 6kt >10km - Few Clouds 800ft 1016 - KSAN 020351Z 33006KT 10SM FEW008 22/17 A3002 RMK AO2 SLP165 T02220167 $
VFR 22.2°C / 17.2°C 320º 9kt >10km - Few Clouds 800ft 1016 - KSAN 020251Z 32009KT 10SM FEW008 22/17 A3001 RMK AO2 SLP161 T02220172 53003 $
VFR 24.4°C / 17.8°C 310º 8kt >10km - Few Clouds 800ft 1015 - KSAN 020151Z 31008KT 10SM FEW008 24/18 A3000 RMK AO2 SLP158 T02440178 $
VFR 25°C / 17.8°C 300º 10kt >10km - Clear 1015 - KSAN 020051Z 30010KT 10SM CLR 25/18 A2999 RMK AO2 SLP156 T02500178 $
VFR 26.1°C / 17.2°C 300º 9kt >10km - Clear 1015 - KSAN 012351Z 30009KT 10SM CLR 26/17 A3000 RMK AO2 SLP158 T02610172 10267 20217 $
VFR 26.1°C / 16.7°C 310º 10kt >10km - Clear 1016 - KSAN 012251Z 31010KT 10SM CLR 26/17 A3002 RMK AO2 SLP164 T02610167 $
VFR 26.1°C / 16.1°C 300º 12kt >10km - Few Clouds 800ft - KSAN 012151Z 30012KT 10SM FEW008 FEW030 26/16 A3002 RMK AO2 SLPNO T02610161
VFR 25.6°C / 17.2°C 300º 12kt Gust 18kt >10km - Few Clouds 800ft 1016 - KSAN 012051Z 30012G18KT 10SM FEW008 26/17 A3003 RMK AO2 SLP168 T02560172 $
VFR 24.4°C / 17.2°C 290º 13kt >10km - Few Clouds 800ft 1017 - KSAN 011951Z 29013KT 10SM FEW008 24/17 A3004 RMK AO2 SLP172 T02440172 $
VFR 22.8°C / 16.7°C 290º 11kt >10km - Few Clouds 800ft 1017 - KSAN 011851Z 29011KT 10SM FEW008 23/17 A3005 RMK AO2 SLP177 T02280167 $
VFR 22.8°C / 16.1°C 280º 10kt >10km - Few Clouds 800ft 1017 - KSAN 011751Z 28010KT 10SM FEW008 23/16 A3006 RMK AO2 SLP179 T02280161 10233 20178 58005 $
VFR 21.7°C / 16.1°C 300º 7kt >10km - Few Clouds 800ft 1018 - KSAN 011651Z 30007KT 10SM FEW008 22/16 A3007 RMK AO2 SLP180 T02170161 $
VFR 21.7°C / 16.7°C variable 0kt >10km - Scattered Clouds 800ft 1018 - KSAN 011551Z 00000KT 10SM SCT008 22/17 A3007 RMK AO2 SLP183 T02170167 $
VFR 20.6°C / 16.7°C 310º 3kt >10km - Scattered Clouds 800ft - KSAN 011538Z 31003KT 10SM SCT008 21/17 A3008 RMK AO2 T02060167 $

VFR

18.3°C / 15°C

[Víc]
Vítr 320º 4kt
Viditelnost >10km
Počasí -
Oblaky Few Clouds 600ft
Tlak 1017
Změna -
Nezpracované KSAN 021251Z 32004KT 10SM FEW006 18/15 A3005 RMK AO2 SLP174 T01830150 $

VFR

18.9°C / 15°C

[Víc]
Vítr 290º 3kt
Viditelnost >10km
Počasí -
Oblaky Few Clouds 700ft
Tlak 1016
Změna -
Nezpracované KSAN 021151Z 29003KT 10SM FEW007 19/15 A3003 RMK AO2 SLP168 T01890150 10222 20189 $

VFR

19.4°C / 14.4°C

[Víc]
Vítr 30º 3kt
Viditelnost >10km
Počasí -
Oblaky Few Clouds 700ft
Tlak 1016
Změna -
Nezpracované KSAN 021051Z 03003KT 10SM FEW007 19/14 A3003 RMK AO2 SLP168 T01940144 $

VFR

19.4°C / 15.6°C

[Víc]
Vítr 330º 4kt
Viditelnost >10km
Počasí -
Oblaky Few Clouds 700ft
Tlak 1016
Změna -
Nezpracované KSAN 020951Z 33004KT 10SM FEW007 19/16 A3002 RMK AO2 SLP167 T01940156 $

VFR

20°C / 16.1°C

[Víc]
Vítr variable 0kt
Viditelnost >10km
Počasí -
Oblaky Few Clouds 700ft
Tlak
Změna -
Nezpracované KSAN 020908Z 00000KT 10SM FEW007 20/16 A3003 RMK AO2 T02000161 $

VFR

21°C / 16°C

[Víc]
Vítr 350º 5kt
Viditelnost >10km
Počasí *****mm precipitation
Oblaky Few Clouds 700ft
Tlak
Změna -
Nezpracované KSAN 020851Z 35005KT 10SM P6000FT FEW007 21/16 A3003

VFR

20.6°C / 16.1°C

[Víc]
Vítr 340º 4kt
Viditelnost >10km
Počasí -
Oblaky Few Clouds 800ft
Tlak 1016
Změna -
Nezpracované KSAN 020751Z 34004KT 10SM FEW008 21/16 A3003 RMK AO2 SLP169 T02060161 402670178 $

VFR

21.1°C / 16.1°C

[Víc]
Vítr variable 0kt
Viditelnost >10km
Počasí -
Oblaky Few Clouds 800ft
Tlak 1017
Změna -
Nezpracované KSAN 020651Z 00000KT 10SM FEW008 21/16 A3004 RMK AO2 SLP173 T02110161 $

VFR

21.7°C / 16.1°C

[Víc]
Vítr 350º 5kt
Viditelnost >10km
Počasí -
Oblaky Few Clouds 800ft
Tlak 1017
Změna -
Nezpracované KSAN 020551Z 35005KT 10SM FEW008 22/16 A3004 RMK AO2 SLP173 T02170161 10267 20217 51012 $

VFR

22.2°C / 16.1°C

[Víc]
Vítr 350º 6kt
Viditelnost >10km
Počasí -
Oblaky Few Clouds 800ft
Tlak 1017
Změna -
Nezpracované KSAN 020451Z 35006KT 10SM FEW008 22/16 A3004 RMK AO2 SLP171 T02220161 $

VFR

22.2°C / 16.7°C

[Víc]
Vítr 330º 6kt
Viditelnost >10km
Počasí -
Oblaky Few Clouds 800ft
Tlak 1016
Změna -
Nezpracované KSAN 020351Z 33006KT 10SM FEW008 22/17 A3002 RMK AO2 SLP165 T02220167 $

VFR

22.2°C / 17.2°C

[Víc]
Vítr 320º 9kt
Viditelnost >10km
Počasí -
Oblaky Few Clouds 800ft
Tlak 1016
Změna -
Nezpracované KSAN 020251Z 32009KT 10SM FEW008 22/17 A3001 RMK AO2 SLP161 T02220172 53003 $

VFR

24.4°C / 17.8°C

[Víc]
Vítr 310º 8kt
Viditelnost >10km
Počasí -
Oblaky Few Clouds 800ft
Tlak 1015
Změna -
Nezpracované KSAN 020151Z 31008KT 10SM FEW008 24/18 A3000 RMK AO2 SLP158 T02440178 $

VFR

25°C / 17.8°C

[Víc]
Vítr 300º 10kt
Viditelnost >10km
Počasí -
Oblaky Clear
Tlak 1015
Změna -
Nezpracované KSAN 020051Z 30010KT 10SM CLR 25/18 A2999 RMK AO2 SLP156 T02500178 $

VFR

26.1°C / 17.2°C

[Víc]
Vítr 300º 9kt
Viditelnost >10km
Počasí -
Oblaky Clear
Tlak 1015
Změna -
Nezpracované KSAN 012351Z 30009KT 10SM CLR 26/17 A3000 RMK AO2 SLP158 T02610172 10267 20217 $

VFR

26.1°C / 16.7°C

[Víc]
Vítr 310º 10kt
Viditelnost >10km
Počasí -
Oblaky Clear
Tlak 1016
Změna -
Nezpracované KSAN 012251Z 31010KT 10SM CLR 26/17 A3002 RMK AO2 SLP164 T02610167 $

VFR

26.1°C / 16.1°C

[Víc]
Vítr 300º 12kt
Viditelnost >10km
Počasí -
Oblaky Few Clouds 800ft
Tlak
Změna -
Nezpracované KSAN 012151Z 30012KT 10SM FEW008 FEW030 26/16 A3002 RMK AO2 SLPNO T02610161

VFR

25.6°C / 17.2°C

[Víc]
Vítr 300º 12kt Gust 18kt
Viditelnost >10km
Počasí -
Oblaky Few Clouds 800ft
Tlak 1016
Změna -
Nezpracované KSAN 012051Z 30012G18KT 10SM FEW008 26/17 A3003 RMK AO2 SLP168 T02560172 $

VFR

24.4°C / 17.2°C

[Víc]
Vítr 290º 13kt
Viditelnost >10km
Počasí -
Oblaky Few Clouds 800ft
Tlak 1017
Změna -
Nezpracované KSAN 011951Z 29013KT 10SM FEW008 24/17 A3004 RMK AO2 SLP172 T02440172 $

VFR

22.8°C / 16.7°C

[Víc]
Vítr 290º 11kt
Viditelnost >10km
Počasí -
Oblaky Few Clouds 800ft
Tlak 1017
Změna -
Nezpracované KSAN 011851Z 29011KT 10SM FEW008 23/17 A3005 RMK AO2 SLP177 T02280167 $

VFR

22.8°C / 16.1°C

[Víc]
Vítr 280º 10kt
Viditelnost >10km
Počasí -
Oblaky Few Clouds 800ft
Tlak 1017
Změna -
Nezpracované KSAN 011751Z 28010KT 10SM FEW008 23/16 A3006 RMK AO2 SLP179 T02280161 10233 20178 58005 $

VFR

21.7°C / 16.1°C

[Víc]
Vítr 300º 7kt
Viditelnost >10km
Počasí -
Oblaky Few Clouds 800ft
Tlak 1018
Změna -
Nezpracované KSAN 011651Z 30007KT 10SM FEW008 22/16 A3007 RMK AO2 SLP180 T02170161 $

VFR

21.7°C / 16.7°C

[Víc]
Vítr variable 0kt
Viditelnost >10km
Počasí -
Oblaky Scattered Clouds 800ft
Tlak 1018
Změna -
Nezpracované KSAN 011551Z 00000KT 10SM SCT008 22/17 A3007 RMK AO2 SLP183 T02170167 $

VFR

20.6°C / 16.7°C

[Víc]
Vítr 310º 3kt
Viditelnost >10km
Počasí -
Oblaky Scattered Clouds 800ft
Tlak
Změna -
Nezpracované KSAN 011538Z 31003KT 10SM SCT008 21/17 A3008 RMK AO2 T02060167 $

TAF pro San Diego (KSAN)

From till


From till Wind variable 4kt. Visibility 10km or more. Scattered Clouds 600ft.
From till Wind 300º 12kt. Visibility 10km or more. Sky Clear.
From till Wind variable 5kt. Visibility 10km or more. Sky Clear.

Nezpracované: KSAN 021320Z 0213/0318 VRB04KT P6SM SCT006 FM021800 30012KT P6SM SKC FM030400 VRB05KT P6SM SKC

rainNOW: Předpověď deště pro San Diego a okolí (v okruhu 25 km)

0.0 mm
0.0 mm
0.0 mm
0.0 mm
0.0 mm
0.0 mm
0.0 mm
0.0 mm
0.0 mm
0.0 mm
0.0 mm
0.0 mm

Aktuální snímky ze satelitu pro San Diego, Spojené státy americké

Značka polohy je umístěna na San Diego. [Víc]

Satelitní snímek v reálném čase kombinuje viditelné světlo během dne s infračerveným zářením během noci. V noci není obraz tmavý, protože infračervené záření dokáže detekovat teplotní rozdíly. Nízká oblačnost a mlha se bohužel těžko odlišují od pozemních teplot, a proto mohou být během noci téměř neviditelné. Satelitní snímky z Meteosatu pro Evropu jsou aktualizovány v reálném čase každých 5 minut. Snímky z GOES-16/GOES-17 (Severní a Jižní Amerika) a Himawari (Asie) jsou aktualizovány) každých 10 minut.

Radar a krátkodobá předpověď srážek pro San Diego

Mrholení
Slabé
Mírná
Silné
Velmi silné
Kroupy

Značka lokality je umístněna na San Diego. Tato animace ukazuje srážky zaznamenané radarem za poslední hodinu a také 1h předpověď. Mrholení nebo slabé sněžení mohou být pro radar neviditelné. Intenzita srážek používá barevní kód od světle modré po tmavě fialovou.